sensor_id;sensor_type;location;lat;lon;timestamp;pressure;altitude;pressure_sealevel;temperature;humidity
48424;BME280;34232;42.502;26.014;2024-01-16T00:00:24;98725.38;;;2.74;74.40
48424;BME280;34232;42.502;26.014;2024-01-16T00:02:49;98723.16;;;2.80;74.40
48424;BME280;34232;42.502;26.014;2024-01-16T00:05:15;98733.22;;;2.85;74.31
48424;BME280;34232;42.502;26.014;2024-01-16T00:07:40;98735.50;;;2.90;74.64
48424;BME280;34232;42.502;26.014;2024-01-16T00:10:07;98733.84;;;2.89;74.24
48424;BME280;34232;42.502;26.014;2024-01-16T00:12:32;98731.44;;;2.86;73.86
48424;BME280;34232;42.502;26.014;2024-01-16T00:14:57;98731.16;;;2.77;74.16
48424;BME280;34232;42.502;26.014;2024-01-16T00:17:23;98728.06;;;2.72;74.45
48424;BME280;34232;42.502;26.014;2024-01-16T00:19:48;98729.94;;;2.70;74.65
48424;BME280;34232;42.502;26.014;2024-01-16T00:22:13;98721.66;;;2.65;75.33
48424;BME280;34232;42.502;26.014;2024-01-16T00:24:39;98719.44;;;2.72;75.33
48424;BME280;34232;42.502;26.014;2024-01-16T00:27:04;98716.75;;;2.73;75.75
48424;BME280;34232;42.502;26.014;2024-01-16T00:29:29;98713.91;;;2.76;75.95
48424;BME280;34232;42.502;26.014;2024-01-16T00:31:55;98716.78;;;2.85;75.78
48424;BME280;34232;42.502;26.014;2024-01-16T00:34:21;98714.91;;;2.87;75.57
48424;BME280;34232;42.502;26.014;2024-01-16T00:36:46;98715.34;;;2.80;76.13
48424;BME280;34232;42.502;26.014;2024-01-16T00:39:11;98731.00;;;2.92;75.96
48424;BME280;34232;42.502;26.014;2024-01-16T00:41:38;98731.97;;;2.91;76.26
48424;BME280;34232;42.502;26.014;2024-01-16T00:44:03;98728.16;;;2.95;76.24
48424;BME280;34232;42.502;26.014;2024-01-16T00:46:29;98724.41;;;2.99;76.13
48424;BME280;34232;42.502;26.014;2024-01-16T00:48:54;98727.72;;;3.01;75.97
48424;BME280;34232;42.502;26.014;2024-01-16T00:51:19;98719.50;;;2.59;77.75
48424;BME280;34232;42.502;26.014;2024-01-16T00:53:45;98719.63;;;2.45;79.26
48424;BME280;34232;42.502;26.014;2024-01-16T00:56:10;98715.09;;;2.36;79.62
48424;BME280;34232;42.502;26.014;2024-01-16T00:58:36;98719.50;;;1.97;81.80
48424;BME280;34232;42.502;26.014;2024-01-16T01:01:01;98710.72;;;1.74;83.53
48424;BME280;34232;42.502;26.014;2024-01-16T01:03:26;98710.00;;;1.60;84.44
48424;BME280;34232;42.502;26.014;2024-01-16T01:05:52;98703.56;;;1.53;84.94
48424;BME280;34232;42.502;26.014;2024-01-16T01:08:17;98693.19;;;1.40;85.97
48424;BME280;34232;42.502;26.014;2024-01-16T01:10:42;98690.91;;;1.35;86.90
48424;BME280;34232;42.502;26.014;2024-01-16T01:13:08;98688.09;;;1.26;87.66
48424;BME280;34232;42.502;26.014;2024-01-16T01:15:33;98693.56;;;1.21;88.04
48424;BME280;34232;42.502;26.014;2024-01-16T01:17:58;98690.34;;;1.30;87.84
48424;BME280;34232;42.502;26.014;2024-01-16T01:20:23;98697.75;;;1.49;87.64
48424;BME280;34232;42.502;26.014;2024-01-16T01:22:49;98699.09;;;1.80;86.29
48424;BME280;34232;42.502;26.014;2024-01-16T01:25:14;98701.88;;;2.02;85.04
48424;BME280;34232;42.502;26.014;2024-01-16T01:27:40;98698.94;;;2.20;83.32
48424;BME280;34232;42.502;26.014;2024-01-16T01:30:08;98701.16;;;2.00;82.69
48424;BME280;34232;42.502;26.014;2024-01-16T01:32:37;98706.88;;;1.80;83.69
48424;BME280;34232;42.502;26.014;2024-01-16T01:35:03;98707.91;;;1.65;84.46
48424;BME280;34232;42.502;26.014;2024-01-16T01:37:29;98708.16;;;1.62;85.04
48424;BME280;34232;42.502;26.014;2024-01-16T01:39:54;98705.22;;;1.79;84.86
48424;BME280;34232;42.502;26.014;2024-01-16T01:42:19;98705.44;;;1.89;84.03
48424;BME280;34232;42.502;26.014;2024-01-16T01:44:45;98694.63;;;1.95;83.60
48424;BME280;34232;42.502;26.014;2024-01-16T01:47:10;98689.63;;;2.04;82.87
48424;BME280;34232;42.502;26.014;2024-01-16T01:49:35;98693.44;;;2.11;82.55
48424;BME280;34232;42.502;26.014;2024-01-16T01:52:01;98684.44;;;2.04;82.45
48424;BME280;34232;42.502;26.014;2024-01-16T01:54:27;98678.00;;;1.97;82.69
48424;BME280;34232;42.502;26.014;2024-01-16T01:56:52;98671.81;;;1.87;83.79
48424;BME280;34232;42.502;26.014;2024-01-16T01:59:19;98667.41;;;2.00;83.87
48424;BME280;34232;42.502;26.014;2024-01-16T02:01:45;98673.28;;;2.15;83.18
48424;BME280;34232;42.502;26.014;2024-01-16T02:04:12;98672.31;;;2.29;82.69
48424;BME280;34232;42.502;26.014;2024-01-16T02:06:39;98674.28;;;2.38;82.02
48424;BME280;34232;42.502;26.014;2024-01-16T02:09:04;98677.44;;;2.54;80.92
48424;BME280;34232;42.502;26.014;2024-01-16T02:11:32;98676.88;;;2.62;80.51
48424;BME280;34232;42.502;26.014;2024-01-16T02:13:57;98681.31;;;2.72;79.80
48424;BME280;34232;42.502;26.014;2024-01-16T02:16:23;98682.50;;;2.79;79.29
48424;BME280;34232;42.502;26.014;2024-01-16T02:18:50;98674.28;;;2.86;79.18
48424;BME280;34232;42.502;26.014;2024-01-16T02:21:21;98669.34;;;2.94;78.76
48424;BME280;34232;42.502;26.014;2024-01-16T02:23:47;98677.41;;;3.02;77.90
48424;BME280;34232;42.502;26.014;2024-01-16T02:26:16;98679.56;;;3.08;77.37
48424;BME280;34232;42.502;26.014;2024-01-16T02:28:42;98700.63;;;3.16;77.14
48424;BME280;34232;42.502;26.014;2024-01-16T02:31:07;98700.41;;;3.19;76.79
48424;BME280;34232;42.502;26.014;2024-01-16T02:33:33;98688.00;;;3.23;76.64
48424;BME280;34232;42.502;26.014;2024-01-16T02:35:58;98676.41;;;3.27;76.72
48424;BME280;34232;42.502;26.014;2024-01-16T02:38:23;98686.59;;;3.30;76.45
48424;BME280;34232;42.502;26.014;2024-01-16T02:40:49;98697.59;;;3.33;76.23
48424;BME280;34232;42.502;26.014;2024-01-16T02:43:15;98695.72;;;3.35;76.05
48424;BME280;34232;42.502;26.014;2024-01-16T02:45:40;98696.31;;;3.39;75.86
48424;BME280;34232;42.502;26.014;2024-01-16T02:48:05;98695.25;;;3.41;75.90
48424;BME280;34232;42.502;26.014;2024-01-16T02:50:31;98700.22;;;3.44;75.76
48424;BME280;34232;42.502;26.014;2024-01-16T02:52:56;98701.66;;;3.48;75.56
48424;BME280;34232;42.502;26.014;2024-01-16T02:55:21;98699.75;;;3.50;74.98
48424;BME280;34232;42.502;26.014;2024-01-16T02:57:46;98700.72;;;3.49;75.06
48424;BME280;34232;42.502;26.014;2024-01-16T03:00:12;98704.25;;;3.48;74.90
48424;BME280;34232;42.502;26.014;2024-01-16T03:02:38;98708.00;;;3.44;75.27
48424;BME280;34232;42.502;26.014;2024-01-16T03:05:04;98704.47;;;3.45;75.36
48424;BME280;34232;42.502;26.014;2024-01-16T03:07:32;98711.56;;;3.43;75.71
48424;BME280;34232;42.502;26.014;2024-01-16T03:09:58;98713.69;;;3.38;75.80
48424;BME280;34232;42.502;26.014;2024-01-16T03:12:23;98715.81;;;3.44;75.67
48424;BME280;34232;42.502;26.014;2024-01-16T03:14:48;98719.13;;;3.46;75.61
48424;BME280;34232;42.502;26.014;2024-01-16T03:17:14;98716.88;;;3.42;75.61
48424;BME280;34232;42.502;26.014;2024-01-16T03:19:39;98716.03;;;3.41;75.82
48424;BME280;34232;42.502;26.014;2024-01-16T03:22:04;98709.66;;;3.34;76.42
48424;BME280;34232;42.502;26.014;2024-01-16T03:24:30;98714.59;;;3.26;76.60
48424;BME280;34232;42.502;26.014;2024-01-16T03:26:56;98720.25;;;3.20;77.20
48424;BME280;34232;42.502;26.014;2024-01-16T03:29:21;98713.50;;;3.17;77.44
48424;BME280;34232;42.502;26.014;2024-01-16T03:31:46;98721.31;;;2.94;77.81
48424;BME280;34232;42.502;26.014;2024-01-16T03:34:13;98728.34;;;2.80;79.28
48424;BME280;34232;42.502;26.014;2024-01-16T03:36:38;98725.22;;;2.52;80.30
48424;BME280;34232;42.502;26.014;2024-01-16T03:39:03;98728.72;;;2.14;83.18
48424;BME280;34232;42.502;26.014;2024-01-16T03:41:29;98738.81;;;2.19;84.23
48424;BME280;34232;42.502;26.014;2024-01-16T03:43:54;98754.56;;;2.41;83.55
48424;BME280;34232;42.502;26.014;2024-01-16T03:46:21;98753.69;;;2.53;83.10
48424;BME280;34232;42.502;26.014;2024-01-16T03:48:47;98758.63;;;2.69;82.38
48424;BME280;34232;42.502;26.014;2024-01-16T03:51:12;98760.47;;;2.79;81.30
48424;BME280;34232;42.502;26.014;2024-01-16T03:53:40;98759.94;;;2.87;81.10
48424;BME280;34232;42.502;26.014;2024-01-16T03:56:05;98757.47;;;2.97;80.65
48424;BME280;34232;42.502;26.014;2024-01-16T03:58:32;98772.44;;;3.06;80.21
48424;BME280;34232;42.502;26.014;2024-01-16T04:00:58;98770.91;;;3.14;79.72
48424;BME280;34232;42.502;26.014;2024-01-16T04:03:23;98765.41;;;3.19;79.26
48424;BME280;34232;42.502;26.014;2024-01-16T04:05:48;98769.53;;;2.98;79.34
48424;BME280;34232;42.502;26.014;2024-01-16T04:08:14;98768.97;;;2.81;80.89
48424;BME280;34232;42.502;26.014;2024-01-16T04:10:39;98767.81;;;2.86;80.73
48424;BME280;34232;42.502;26.014;2024-01-16T04:13:04;98771.88;;;2.90;80.68
48424;BME280;34232;42.502;26.014;2024-01-16T04:15:30;98785.59;;;2.92;80.71
48424;BME280;34232;42.502;26.014;2024-01-16T04:17:55;98789.06;;;3.03;80.31
48424;BME280;34232;42.502;26.014;2024-01-16T04:20:20;98796.56;;;3.08;79.70
48424;BME280;34232;42.502;26.014;2024-01-16T04:22:46;98802.22;;;3.13;79.75
48424;BME280;34232;42.502;26.014;2024-01-16T04:25:11;98806.78;;;3.22;79.28
48424;BME280;34232;42.502;26.014;2024-01-16T04:27:37;98794.25;;;3.27;79.02
48424;BME280;34232;42.502;26.014;2024-01-16T04:30:02;98815.16;;;3.26;78.58
48424;BME280;34232;42.502;26.014;2024-01-16T04:32:28;98830.19;;;3.22;79.01
48424;BME280;34232;42.502;26.014;2024-01-16T04:34:53;98850.41;;;3.06;79.68
48424;BME280;34232;42.502;26.014;2024-01-16T04:37:18;98841.44;;;3.10;80.05
48424;BME280;34232;42.502;26.014;2024-01-16T04:39:44;98850.16;;;3.09;80.20
48424;BME280;34232;42.502;26.014;2024-01-16T04:42:09;98836.97;;;3.12;79.88
48424;BME280;34232;42.502;26.014;2024-01-16T04:44:34;98839.56;;;3.12;79.79
48424;BME280;34232;42.502;26.014;2024-01-16T04:47:00;98843.59;;;3.16;79.38
48424;BME280;34232;42.502;26.014;2024-01-16T04:49:25;98853.22;;;3.03;79.35
48424;BME280;34232;42.502;26.014;2024-01-16T04:51:50;98851.47;;;3.03;79.45
48424;BME280;34232;42.502;26.014;2024-01-16T04:54:15;98850.63;;;3.03;79.63
48424;BME280;34232;42.502;26.014;2024-01-16T04:56:41;98860.81;;;3.06;79.48
48424;BME280;34232;42.502;26.014;2024-01-16T04:59:06;98869.03;;;3.00;79.97
48424;BME280;34232;42.502;26.014;2024-01-16T05:01:31;98872.47;;;3.00;80.00
48424;BME280;34232;42.502;26.014;2024-01-16T05:03:57;98890.38;;;2.79;80.55
48424;BME280;34232;42.502;26.014;2024-01-16T05:06:22;98898.72;;;2.72;80.81
48424;BME280;34232;42.502;26.014;2024-01-16T05:08:47;98909.81;;;2.61;81.43
48424;BME280;34232;42.502;26.014;2024-01-16T05:11:13;98919.91;;;2.53;81.38
48424;BME280;34232;42.502;26.014;2024-01-16T05:13:39;98924.72;;;2.59;81.62
48424;BME280;34232;42.502;26.014;2024-01-16T05:16:05;98928.25;;;2.58;81.88
48424;BME280;34232;42.502;26.014;2024-01-16T05:18:31;98923.66;;;2.62;82.09
48424;BME280;34232;42.502;26.014;2024-01-16T05:20:57;98938.53;;;2.72;82.08
48424;BME280;34232;42.502;26.014;2024-01-16T05:23:23;98933.41;;;2.84;82.03
48424;BME280;34232;42.502;26.014;2024-01-16T05:25:48;98936.75;;;2.86;81.76
48424;BME280;34232;42.502;26.014;2024-01-16T05:28:14;98939.03;;;2.90;81.40
48424;BME280;34232;42.502;26.014;2024-01-16T05:30:39;98941.28;;;2.95;80.97
48424;BME280;34232;42.502;26.014;2024-01-16T05:33:05;98936.84;;;2.71;81.14
48424;BME280;34232;42.502;26.014;2024-01-16T05:35:30;98950.25;;;2.65;81.83
48424;BME280;34232;42.502;26.014;2024-01-16T05:37:55;98956.06;;;2.69;81.92
48424;BME280;34232;42.502;26.014;2024-01-16T05:40:21;98948.38;;;2.67;81.70
48424;BME280;34232;42.502;26.014;2024-01-16T05:42:48;98953.19;;;2.73;81.72
48424;BME280;34232;42.502;26.014;2024-01-16T05:45:13;98954.19;;;2.84;85.60
48424;BME280;34232;42.502;26.014;2024-01-16T05:47:39;98952.38;;;3.09;89.58
48424;BME280;34232;42.502;26.014;2024-01-16T05:50:04;98936.13;;;3.31;90.36
48424;BME280;34232;42.502;26.014;2024-01-16T05:52:30;98938.31;;;3.61;91.57
48424;BME280;34232;42.502;26.014;2024-01-16T05:54:55;98931.00;;;3.90;90.51
48424;BME280;34232;42.502;26.014;2024-01-16T05:57:22;98945.03;;;4.11;89.81
48424;BME280;34232;42.502;26.014;2024-01-16T05:59:48;98941.56;;;4.35;88.77
48424;BME280;34232;42.502;26.014;2024-01-16T06:02:13;98941.59;;;4.57;87.66
48424;BME280;34232;42.502;26.014;2024-01-16T06:04:39;98939.75;;;4.81;86.51
48424;BME280;34232;42.502;26.014;2024-01-16T06:07:04;98946.28;;;4.98;84.82
48424;BME280;34232;42.502;26.014;2024-01-16T06:09:32;98947.34;;;5.18;83.09
48424;BME280;34232;42.502;26.014;2024-01-16T06:11:57;98950.88;;;5.39;81.38
48424;BME280;34232;42.502;26.014;2024-01-16T06:14:22;98949.41;;;5.57;80.16
48424;BME280;34232;42.502;26.014;2024-01-16T06:16:48;98960.28;;;5.74;79.38
48424;BME280;34232;42.502;26.014;2024-01-16T06:19:13;98963.84;;;5.84;78.19
48424;BME280;34232;42.502;26.014;2024-01-16T06:21:39;98964.97;;;6.02;76.01
48424;BME280;34232;42.502;26.014;2024-01-16T06:24:05;98982.72;;;6.19;75.03
48424;BME280;34232;42.502;26.014;2024-01-16T06:26:31;98986.97;;;6.31;73.99
48424;BME280;34232;42.502;26.014;2024-01-16T06:28:56;99003.03;;;6.48;71.65
48424;BME280;34232;42.502;26.014;2024-01-16T06:31:22;98999.59;;;6.68;71.05
48424;BME280;34232;42.502;26.014;2024-01-16T06:33:48;99013.03;;;6.84;69.09
48424;BME280;34232;42.502;26.014;2024-01-16T06:36:14;99012.44;;;7.01;68.58
48424;BME280;34232;42.502;26.014;2024-01-16T06:38:39;99029.06;;;7.12;67.39
48424;BME280;34232;42.502;26.014;2024-01-16T06:41:05;99044.66;;;7.23;67.25
48424;BME280;34232;42.502;26.014;2024-01-16T06:43:31;99046.50;;;7.32;66.56
48424;BME280;34232;42.502;26.014;2024-01-16T06:45:56;99039.66;;;7.41;65.79
48424;BME280;34232;42.502;26.014;2024-01-16T06:48:21;99060.88;;;7.47;65.27
48424;BME280;34232;42.502;26.014;2024-01-16T06:50:47;99068.94;;;7.55;64.28
48424;BME280;34232;42.502;26.014;2024-01-16T06:53:12;99065.38;;;7.66;63.25
48424;BME280;34232;42.502;26.014;2024-01-16T06:55:38;99081.97;;;7.76;62.67
48424;BME280;34232;42.502;26.014;2024-01-16T06:58:03;99086.28;;;7.87;63.00
48424;BME280;34232;42.502;26.014;2024-01-16T07:00:29;99090.44;;;7.99;62.17
48424;BME280;34232;42.502;26.014;2024-01-16T07:02:54;99096.53;;;7.99;60.39
48424;BME280;34232;42.502;26.014;2024-01-16T07:05:20;99105.22;;;8.00;60.26
48424;BME280;34232;42.502;26.014;2024-01-16T07:07:46;99109.66;;;8.09;59.95
48424;BME280;34232;42.502;26.014;2024-01-16T07:10:11;99118.25;;;8.21;59.87
48424;BME280;34232;42.502;26.014;2024-01-16T07:12:43;99129.91;;;8.37;59.30
48424;BME280;34232;42.502;26.014;2024-01-16T07:15:08;99116.41;;;8.52;58.62
48424;BME280;34232;42.502;26.014;2024-01-16T07:17:33;99118.06;;;8.53;57.62
48424;BME280;34232;42.502;26.014;2024-01-16T07:19:59;99111.00;;;8.63;57.48
48424;BME280;34232;42.502;26.014;2024-01-16T07:22:24;99124.28;;;8.71;57.13
48424;BME280;34232;42.502;26.014;2024-01-16T07:24:49;99112.94;;;8.80;57.07
48424;BME280;34232;42.502;26.014;2024-01-16T07:27:15;99115.19;;;8.75;56.41
48424;BME280;34232;42.502;26.014;2024-01-16T07:29:40;99115.03;;;8.57;55.85
48424;BME280;34232;42.502;26.014;2024-01-16T07:32:06;99126.06;;;8.41;56.11
48424;BME280;34232;42.502;26.014;2024-01-16T07:34:32;99135.41;;;8.34;56.52
48424;BME280;34232;42.502;26.014;2024-01-16T07:36:57;99150.00;;;8.27;55.58
48424;BME280;34232;42.502;26.014;2024-01-16T07:39:22;99164.38;;;8.33;56.80
48424;BME280;34232;42.502;26.014;2024-01-16T07:41:48;99181.53;;;8.47;57.28
48424;BME280;34232;42.502;26.014;2024-01-16T07:44:13;99188.06;;;8.62;56.29
48424;BME280;34232;42.502;26.014;2024-01-16T07:46:38;99197.34;;;8.85;55.16
48424;BME280;34232;42.502;26.014;2024-01-16T07:49:04;99200.41;;;9.00;54.67
48424;BME280;34232;42.502;26.014;2024-01-16T07:51:29;99197.66;;;9.21;54.55
48424;BME280;34232;42.502;26.014;2024-01-16T07:54:04;99204.81;;;9.28;53.17
48424;BME280;34232;42.502;26.014;2024-01-16T07:56:29;99197.66;;;9.21;52.50
48424;BME280;34232;42.502;26.014;2024-01-16T07:58:55;99200.81;;;9.15;52.04
48424;BME280;34232;42.502;26.014;2024-01-16T08:01:20;99204.53;;;9.12;53.03
48424;BME280;34232;42.502;26.014;2024-01-16T08:03:46;99211.19;;;9.16;51.92
48424;BME280;34232;42.502;26.014;2024-01-16T08:06:11;99212.03;;;9.17;52.60
48424;BME280;34232;42.502;26.014;2024-01-16T08:08:37;99214.78;;;9.25;50.75
48424;BME280;34232;42.502;26.014;2024-01-16T08:11:02;99224.72;;;9.31;50.74
48424;BME280;34232;42.502;26.014;2024-01-16T08:13:27;99228.47;;;9.38;50.57
48424;BME280;34232;42.502;26.014;2024-01-16T08:15:53;99235.53;;;9.37;48.49
48424;BME280;34232;42.502;26.014;2024-01-16T08:18:18;99226.13;;;9.35;49.10
48424;BME280;34232;42.502;26.014;2024-01-16T08:20:44;99251.84;;;9.41;48.46
48424;BME280;34232;42.502;26.014;2024-01-16T08:23:09;99255.16;;;9.33;48.07
48424;BME280;34232;42.502;26.014;2024-01-16T08:25:34;99237.44;;;9.16;48.80
48424;BME280;34232;42.502;26.014;2024-01-16T08:28:00;99265.88;;;8.92;48.97
48424;BME280;34232;42.502;26.014;2024-01-16T08:30:26;99257.53;;;8.77;49.37
48424;BME280;34232;42.502;26.014;2024-01-16T08:32:51;99279.09;;;8.71;49.45
48424;BME280;34232;42.502;26.014;2024-01-16T08:35:16;99248.38;;;8.62;49.47
48424;BME280;34232;42.502;26.014;2024-01-16T08:37:41;99267.13;;;8.48;49.55
48424;BME280;34232;42.502;26.014;2024-01-16T08:40:07;99264.94;;;8.53;49.63
48424;BME280;34232;42.502;26.014;2024-01-16T08:42:32;99277.28;;;8.71;48.86
48424;BME280;34232;42.502;26.014;2024-01-16T08:44:58;99275.25;;;8.94;49.81
48424;BME280;34232;42.502;26.014;2024-01-16T08:47:23;99306.66;;;9.05;48.35
48424;BME280;34232;42.502;26.014;2024-01-16T08:49:48;99300.06;;;9.21;48.03
48424;BME280;34232;42.502;26.014;2024-01-16T08:52:14;99302.97;;;9.37;47.07
48424;BME280;34232;42.502;26.014;2024-01-16T08:54:40;99315.00;;;9.49;46.71
48424;BME280;34232;42.502;26.014;2024-01-16T08:57:06;99312.13;;;9.71;46.79
48424;BME280;34232;42.502;26.014;2024-01-16T08:59:31;99306.56;;;9.84;47.00
48424;BME280;34232;42.502;26.014;2024-01-16T09:01:57;99315.53;;;10.01;45.57
48424;BME280;34232;42.502;26.014;2024-01-16T09:04:23;99310.97;;;10.22;44.74
48424;BME280;34232;42.502;26.014;2024-01-16T09:06:48;99308.13;;;10.43;45.14
48424;BME280;34232;42.502;26.014;2024-01-16T09:09:13;99323.41;;;10.67;43.70
48424;BME280;34232;42.502;26.014;2024-01-16T09:11:41;99316.28;;;10.77;43.42
48424;BME280;34232;42.502;26.014;2024-01-16T09:14:06;99328.19;;;10.81;42.64
48424;BME280;34232;42.502;26.014;2024-01-16T09:16:31;99337.34;;;10.77;42.34
48424;BME280;34232;42.502;26.014;2024-01-16T09:18:57;99349.91;;;10.56;41.76
48424;BME280;34232;42.502;26.014;2024-01-16T09:21:22;99344.25;;;10.50;42.14
48424;BME280;34232;42.502;26.014;2024-01-16T09:23:47;99337.28;;;10.59;42.64
48424;BME280;34232;42.502;26.014;2024-01-16T09:26:13;99344.06;;;10.71;42.71
48424;BME280;34232;42.502;26.014;2024-01-16T09:28:38;99341.09;;;10.84;41.51
48424;BME280;34232;42.502;26.014;2024-01-16T09:31:05;99341.16;;;10.92;41.16
48424;BME280;34232;42.502;26.014;2024-01-16T09:33:30;99365.84;;;10.91;41.02
48424;BME280;34232;42.502;26.014;2024-01-16T09:35:56;99364.00;;;11.01;41.08
48424;BME280;34232;42.502;26.014;2024-01-16T09:38:21;99375.59;;;11.08;41.27
48424;BME280;34232;42.502;26.014;2024-01-16T09:40:46;99365.47;;;11.13;40.89
48424;BME280;34232;42.502;26.014;2024-01-16T09:43:12;99384.81;;;11.22;39.99
48424;BME280;34232;42.502;26.014;2024-01-16T09:45:38;99393.03;;;11.19;39.94
48424;BME280;34232;42.502;26.014;2024-01-16T09:48:04;99398.63;;;11.34;40.52
48424;BME280;34232;42.502;26.014;2024-01-16T09:50:30;99397.75;;;11.43;40.54
48424;BME280;34232;42.502;26.014;2024-01-16T09:52:56;99395.72;;;11.54;39.02
48424;BME280;34232;42.502;26.014;2024-01-16T09:55:21;99389.69;;;11.44;39.09
48424;BME280;34232;42.502;26.014;2024-01-16T09:57:46;99401.13;;;11.35;39.62
48424;BME280;34232;42.502;26.014;2024-01-16T10:00:14;99409.88;;;11.53;39.69
48424;BME280;34232;42.502;26.014;2024-01-16T10:02:41;99416.97;;;11.71;39.22
48424;BME280;34232;42.502;26.014;2024-01-16T10:05:10;99418.31;;;11.84;39.06
48424;BME280;34232;42.502;26.014;2024-01-16T10:07:38;99424.06;;;11.98;38.47
48424;BME280;34232;42.502;26.014;2024-01-16T10:10:04;99416.13;;;11.98;37.57
48424;BME280;34232;42.502;26.014;2024-01-16T10:12:30;99421.03;;;11.93;38.11
48424;BME280;34232;42.502;26.014;2024-01-16T10:14:55;99412.59;;;12.07;37.33
48424;BME280;34232;42.502;26.014;2024-01-16T10:17:21;99419.75;;;12.14;37.03
48424;BME280;34232;42.502;26.014;2024-01-16T10:19:52;99416.19;;;12.06;36.48
48424;BME280;34232;42.502;26.014;2024-01-16T10:22:23;99427.44;;;12.08;37.21
48424;BME280;34232;42.502;26.014;2024-01-16T10:24:50;99428.13;;;12.10;36.67
48424;BME280;34232;42.502;26.014;2024-01-16T10:27:15;99423.91;;;12.17;35.40
48424;BME280;34232;42.502;26.014;2024-01-16T10:32:36;99437.38;;;12.32;36.23
48424;BME280;34232;42.502;26.014;2024-01-16T10:35:08;99441.72;;;12.41;35.89
48424;BME280;34232;42.502;26.014;2024-01-16T10:37:46;99450.72;;;12.30;34.81
48424;BME280;34232;42.502;26.014;2024-01-16T10:40:15;99445.06;;;12.25;34.40
48424;BME280;34232;42.502;26.014;2024-01-16T10:42:41;99459.78;;;12.10;35.37
48424;BME280;34232;42.502;26.014;2024-01-16T10:45:07;99461.03;;;12.23;35.70
48424;BME280;34232;42.502;26.014;2024-01-16T10:47:32;99452.16;;;12.24;34.81
48424;BME280;34232;42.502;26.014;2024-01-16T10:50:02;99441.75;;;12.05;33.62
48424;BME280;34232;42.502;26.014;2024-01-16T10:52:28;99456.59;;;12.24;34.26
48424;BME280;34232;42.502;26.014;2024-01-16T10:54:53;99447.41;;;12.28;34.57
48424;BME280;34232;42.502;26.014;2024-01-16T10:57:22;99460.22;;;12.23;34.11
48424;BME280;34232;42.502;26.014;2024-01-16T10:59:50;99471.53;;;12.33;33.68
48424;BME280;34232;42.502;26.014;2024-01-16T11:02:21;99464.94;;;12.37;33.60
48424;BME280;34232;42.502;26.014;2024-01-16T11:04:49;99461.47;;;12.54;34.17
48424;BME280;34232;42.502;26.014;2024-01-16T11:07:15;99468.16;;;12.67;31.84
48424;BME280;34232;42.502;26.014;2024-01-16T11:09:42;99465.59;;;12.75;32.77
48424;BME280;34232;42.502;26.014;2024-01-16T11:12:08;99465.97;;;12.80;32.48
48424;BME280;34232;42.502;26.014;2024-01-16T11:14:36;99473.25;;;12.86;32.72
48424;BME280;34232;42.502;26.014;2024-01-16T11:17:02;99476.34;;;13.07;32.12
48424;BME280;34232;42.502;26.014;2024-01-16T11:19:31;99480.72;;;13.16;31.93
48424;BME280;34232;42.502;26.014;2024-01-16T11:21:57;99489.63;;;13.15;31.19
48424;BME280;34232;42.502;26.014;2024-01-16T11:24:23;99483.97;;;13.10;31.41
48424;BME280;34232;42.502;26.014;2024-01-16T11:26:49;99486.63;;;13.10;31.97
48424;BME280;34232;42.502;26.014;2024-01-16T11:31:52;99496.56;;;13.16;32.54
48424;BME280;34232;42.502;26.014;2024-01-16T11:34:43;99506.19;;;13.00;31.50
48424;BME280;34232;42.502;26.014;2024-01-16T11:37:02;99514.91;;;12.92;31.96
48424;BME280;34232;42.502;26.014;2024-01-16T11:39:31;99518.00;;;12.87;31.62
48424;BME280;34232;42.502;26.014;2024-01-16T11:41:57;99518.22;;;12.94;32.34
48424;BME280;34232;42.502;26.014;2024-01-16T11:47:18;99523.38;;;12.78;32.03
48424;BME280;34232;42.502;26.014;2024-01-16T11:49:43;99518.03;;;12.70;32.55
48424;BME280;34232;42.502;26.014;2024-01-16T11:52:09;99526.25;;;12.67;32.00
48424;BME280;34232;42.502;26.014;2024-01-16T11:54:36;99537.13;;;12.64;32.69
48424;BME280;34232;42.502;26.014;2024-01-16T12:02:00;99541.06;;;12.59;32.42
48424;BME280;34232;42.502;26.014;2024-01-16T12:04:28;99557.63;;;12.70;32.20
48424;BME280;34232;42.502;26.014;2024-01-16T12:06:57;99565.94;;;12.75;32.73
48424;BME280;34232;42.502;26.014;2024-01-16T12:09:25;99581.06;;;12.65;32.07
48424;BME280;34232;42.502;26.014;2024-01-16T12:12:00;99583.00;;;12.63;31.62
48424;BME280;34232;42.502;26.014;2024-01-16T12:14:28;99578.91;;;12.50;31.97
48424;BME280;34232;42.502;26.014;2024-01-16T12:17:10;99570.94;;;12.42;33.25
48424;BME280;34232;42.502;26.014;2024-01-16T12:19:36;99565.50;;;12.44;31.85
48424;BME280;34232;42.502;26.014;2024-01-16T12:22:01;99560.28;;;12.34;32.56
48424;BME280;34232;42.502;26.014;2024-01-16T12:24:26;99563.25;;;12.31;33.29
48424;BME280;34232;42.502;26.014;2024-01-16T12:26:52;99567.91;;;12.37;32.40
48424;BME280;34232;42.502;26.014;2024-01-16T12:29:18;99575.06;;;12.27;31.92
48424;BME280;34232;42.502;26.014;2024-01-16T12:31:43;99581.44;;;12.07;32.60
48424;BME280;34232;42.502;26.014;2024-01-16T12:34:09;99595.59;;;12.06;32.17
48424;BME280;34232;42.502;26.014;2024-01-16T12:36:34;99596.78;;;11.94;32.47
48424;BME280;34232;42.502;26.014;2024-01-16T12:39:00;99594.06;;;11.76;32.52
48424;BME280;34232;42.502;26.014;2024-01-16T12:41:30;99604.03;;;11.72;32.88
48424;BME280;34232;42.502;26.014;2024-01-16T12:43:58;99608.06;;;11.30;33.38
48424;BME280;34232;42.502;26.014;2024-01-16T12:46:23;99616.38;;;11.35;33.28
48424;BME280;34232;42.502;26.014;2024-01-16T12:48:49;99625.25;;;11.24;33.10
48424;BME280;34232;42.502;26.014;2024-01-16T12:51:19;99614.47;;;11.17;33.91
48424;BME280;34232;42.502;26.014;2024-01-16T12:53:45;99617.38;;;11.14;33.87
48424;BME280;34232;42.502;26.014;2024-01-16T12:56:10;99617.78;;;11.10;33.86
48424;BME280;34232;42.502;26.014;2024-01-16T12:58:37;99625.84;;;11.08;34.12
48424;BME280;34232;42.502;26.014;2024-01-16T13:03:54;99629.28;;;11.09;34.59
48424;BME280;34232;42.502;26.014;2024-01-16T13:06:20;99639.16;;;11.16;34.01